Time;durP1;ratioP1;P1;durP2;ratioP2;P2;SDS_P1;SDS_P2;PMS_P1;PMS_P2;Temp;Humidity;BMP_temperature;BMP_pressure;BME280_temperature;BME280_humidity;BME280_pressure;Samples;Min_cycle;Max_cycle;Signal;HPM_P1;HPM_P2
2021/06/30 00:00:15;;;;;;;;;;;16.20;97.90;;;;;;5076700;28;20044;-67
2021/06/30 00:02:40;;;;;;;;;;;16.20;97.90;;;;;;5083617;28;20280;-68
2021/06/30 00:05:07;;;;;;;;;;;16.20;98.00;;;;;;5056025;28;19916;-68
2021/06/30 00:07:33;;;;;;;;;;;16.20;98.00;;;;;;5082457;28;20484;-68
2021/06/30 00:09:59;;;;;;;;;;;16.30;98.00;;;;;;5083922;28;19973;-68
2021/06/30 00:12:25;;;;;;;;;;;16.20;97.90;;;;;;5080092;28;19936;-68
2021/06/30 00:14:51;;;;;;;;;;;16.30;97.90;;;;;;5079278;28;20391;-69
2021/06/30 00:17:17;;;;;;;;;;;16.30;98.00;;;;;;5082030;28;19912;-69
2021/06/30 00:19:43;;;;;;;;;;;16.30;98.10;;;;;;5079258;28;20374;-68
2021/06/30 00:22:08;;;;;;;;;;;16.40;98.00;;;;;;5076757;28;19912;-68
2021/06/30 00:24:34;;;;;;;;;;;16.40;98.00;;;;;;5077677;28;19916;-68
2021/06/30 00:26:59;;;;;;;;;;;16.50;97.90;;;;;;5080700;28;19916;-68
2021/06/30 00:29:25;;;;;;;;;;;16.50;97.90;;;;;;5073970;28;20358;-66
2021/06/30 00:31:50;;;;;;;;;;;16.40;97.90;;;;;;5074404;28;20055;-65
2021/06/30 00:34:16;;;;;;;;;;;16.40;98.00;;;;;;5079558;28;19959;-68
2021/06/30 00:36:46;;;;;;;;;;;16.40;98.00;;;;;;5076087;28;19974;-68
2021/06/30 00:39:12;;;;;;;;;;;16.40;98.10;;;;;;5082304;28;19912;-68
2021/06/30 00:41:37;;;;;;;;;;;16.40;98.10;;;;;;5079031;28;20371;-68
2021/06/30 00:44:03;;;;;;;;;;;16.40;98.20;;;;;;5076360;28;20274;-68
2021/06/30 00:46:30;;;;;;;;;;;16.40;98.30;;;;;;5072390;28;20009;-68
2021/06/30 00:48:56;;;;;;;;;;;16.50;98.40;;;;;;5079159;28;20257;-67
2021/06/30 00:51:22;;;;;;;;;;;16.50;98.40;;;;;;5082038;28;20333;-65
2021/06/30 00:53:47;;;;;;;;;;;16.40;98.40;;;;;;5079560;28;19972;-68
2021/06/30 00:56:13;;;;;;;;;;;16.50;98.50;;;;;;5082314;28;19988;-69
2021/06/30 00:58:39;;;;;;;;;;;16.50;98.60;;;;;;5081491;28;19926;-68
2021/06/30 01:01:05;;;;;;;;;;;16.50;98.60;;;;;;5062225;28;20300;-69
2021/06/30 01:03:31;;;;;;;;;;;16.50;98.60;;;;;;5080903;28;20179;-67
2021/06/30 01:05:56;;;;;;;;;;;16.50;98.70;;;;;;5066639;28;20527;-68
2021/06/30 01:08:22;;;;;;;;;;;16.50;98.70;;;;;;5077096;28;19912;-68
2021/06/30 01:10:47;;;;;;;;;;;16.50;98.70;;;;;;5075271;28;19921;-67
2021/06/30 01:13:12;;;;;;;;;;;16.50;98.80;;;;;;5074608;28;20325;-67
2021/06/30 01:15:54;;;;;;;;;;;16.50;98.80;;;;;;5074393;28;20010;-68
2021/06/30 01:18:21;;;;;;;;;;;16.50;98.80;;;;;;5082408;28;19912;-67
2021/06/30 01:20:46;;;;;;;;;;;16.50;98.80;;;;;;5065578;28;19936;-69
2021/06/30 01:23:12;;;;;;;;;;;16.50;98.70;;;;;;5079139;28;20431;-67
2021/06/30 01:25:37;;;;;;;;;;;16.50;98.80;;;;;;5077008;28;20262;-67
2021/06/30 01:28:03;;;;;;;;;;;16.50;98.60;;;;;;5082375;28;19951;-70
2021/06/30 01:30:28;;;;;;;;;;;16.40;98.60;;;;;;5078264;28;20158;-67
2021/06/30 01:32:54;;;;;;;;;;;16.50;98.60;;;;;;5084549;28;19916;-67
2021/06/30 01:35:20;;;;;;;;;;;16.50;98.70;;;;;;5076776;28;19931;-69
2021/06/30 01:37:46;;;;;;;;;;;16.50;98.60;;;;;;5071287;28;20359;-68
2021/06/30 01:40:12;;;;;;;;;;;16.40;98.60;;;;;;5075254;28;19912;-68
2021/06/30 01:42:38;;;;;;;;;;;16.40;98.60;;;;;;5082706;28;20041;-68
2021/06/30 01:45:04;;;;;;;;;;;16.40;98.60;;;;;;5075089;28;20312;-68
2021/06/30 01:47:29;;;;;;;;;;;16.50;98.70;;;;;;5082840;28;20225;-68
2021/06/30 01:49:55;;;;;;;;;;;16.50;98.70;;;;;;5080331;28;19916;-68
2021/06/30 01:52:20;;;;;;;;;;;16.40;98.70;;;;;;5070230;28;19955;-69
2021/06/30 01:54:46;;;;;;;;;;;16.50;98.70;;;;;;5081827;28;20407;-67
2021/06/30 01:57:11;;;;;;;;;;;16.50;98.70;;;;;;5078594;28;20120;-68
2021/06/30 01:59:37;;;;;;;;;;;16.60;98.90;;;;;;5077641;28;19992;-69
2021/06/30 02:02:03;;;;;;;;;;;16.70;99.00;;;;;;5074978;28;19999;-69
2021/06/30 02:04:28;;;;;;;;;;;16.60;98.90;;;;;;5067449;28;20337;-68
2021/06/30 02:06:54;;;;;;;;;;;16.60;99.00;;;;;;5075297;28;19923;-66
2021/06/30 02:09:19;;;;;;;;;;;16.70;99.00;;;;;;5082777;28;20359;-69
2021/06/30 02:11:45;;;;;;;;;;;16.70;99.00;;;;;;5080080;28;20157;-69
2021/06/30 02:14:11;;;;;;;;;;;16.70;99.00;;;;;;5082914;28;20337;-68
2021/06/30 02:16:36;;;;;;;;;;;16.70;99.10;;;;;;5083500;28;20356;-68
2021/06/30 02:19:04;;;;;;;;;;;16.70;99.10;;;;;;5083618;28;19919;-69
2021/06/30 02:21:30;;;;;;;;;;;16.80;99.20;;;;;;5055613;28;19916;-69
2021/06/30 02:23:56;;;;;;;;;;;16.70;99.10;;;;;;5072816;28;19925;-68
2021/06/30 02:26:21;;;;;;;;;;;16.70;99.10;;;;;;5066454;28;19916;-68
2021/06/30 02:28:47;;;;;;;;;;;16.70;99.10;;;;;;5074338;28;19920;-69
2021/06/30 02:31:12;;;;;;;;;;;16.70;99.20;;;;;;5080241;28;19999;-67
2021/06/30 02:33:38;;;;;;;;;;;16.80;99.20;;;;;;5073461;28;19912;-68
2021/06/30 02:36:03;;;;;;;;;;;16.70;99.20;;;;;;5083034;28;19974;-68
2021/06/30 02:38:29;;;;;;;;;;;16.70;99.20;;;;;;5083098;28;20013;-68
2021/06/30 02:40:54;;;;;;;;;;;16.80;99.20;;;;;;5081379;28;19943;-68
2021/06/30 02:43:20;;;;;;;;;;;16.80;99.30;;;;;;5076910;28;19958;-68
2021/06/30 02:45:45;;;;;;;;;;;16.80;99.20;;;;;;5077707;28;19988;-68
2021/06/30 02:48:11;;;;;;;;;;;16.80;99.20;;;;;;5074929;28;20095;-68
2021/06/30 02:50:36;;;;;;;;;;;16.80;99.20;;;;;;5077376;28;19959;-68
2021/06/30 02:53:02;;;;;;;;;;;16.80;99.20;;;;;;5075996;28;20317;-68
2021/06/30 02:55:27;;;;;;;;;;;16.80;99.30;;;;;;5074273;28;20053;-67
2021/06/30 02:57:53;;;;;;;;;;;16.70;99.20;;;;;;5082074;28;20245;-68
2021/06/30 03:00:24;;;;;;;;;;;16.80;99.30;;;;;;5083284;28;20344;-68
2021/06/30 03:02:49;;;;;;;;;;;16.80;99.30;;;;;;5075750;28;20002;-66
2021/06/30 03:05:15;;;;;;;;;;;16.80;99.30;;;;;;5075555;28;20305;-68
2021/06/30 03:07:41;;;;;;;;;;;16.80;99.30;;;;;;5073860;28;20053;-68
2021/06/30 03:10:07;;;;;;;;;;;16.80;99.20;;;;;;5079419;28;19966;-68
2021/06/30 03:12:33;;;;;;;;;;;16.80;99.20;;;;;;5074777;28;19931;-68
2021/06/30 03:14:59;;;;;;;;;;;16.90;99.30;;;;;;5082625;28;19916;-68
2021/06/30 03:17:24;;;;;;;;;;;16.90;99.20;;;;;;5077872;28;20290;-68
2021/06/30 03:19:50;;;;;;;;;;;16.90;99.20;;;;;;5080767;28;19912;-68
2021/06/30 03:22:15;;;;;;;;;;;16.90;99.20;;;;;;5074336;28;19916;-68
2021/06/30 03:24:41;;;;;;;;;;;16.90;99.10;;;;;;5080671;28;20031;-68
2021/06/30 03:27:06;;;;;;;;;;;16.90;99.20;;;;;;5073896;28;19916;-68
2021/06/30 03:29:32;;;;;;;;;;;16.90;99.10;;;;;;5079671;28;20316;-68
2021/06/30 03:31:57;;;;;;;;;;;16.80;99.10;;;;;;5076673;28;19919;-68
2021/06/30 03:34:23;;;;;;;;;;;16.90;99.20;;;;;;5082274;28;19916;-69
2021/06/30 03:36:48;;;;;;;;;;;16.90;99.10;;;;;;5074903;28;19981;-68
2021/06/30 03:39:14;;;;;;;;;;;16.90;99.10;;;;;;5074492;28;20294;-69
2021/06/30 03:41:39;;;;;;;;;;;16.90;99.10;;;;;;5082256;28;19916;-67
2021/06/30 03:44:05;;;;;;;;;;;16.90;99.10;;;;;;5074297;28;19982;-67
2021/06/30 03:46:31;;;;;;;;;;;16.90;99.10;;;;;;5081530;28;19916;-67
2021/06/30 03:48:56;;;;;;;;;;;17.00;99.10;;;;;;5080621;28;20382;-68
2021/06/30 03:51:22;;;;;;;;;;;17.00;99.20;;;;;;5081217;28;19935;-67
2021/06/30 03:53:47;;;;;;;;;;;17.00;99.00;;;;;;5070766;28;20099;-67
2021/06/30 03:56:13;;;;;;;;;;;17.00;99.00;;;;;;5069514;28;20015;-68
2021/06/30 03:58:38;;;;;;;;;;;17.00;99.00;;;;;;5074627;28;20073;-67
2021/06/30 04:01:04;;;;;;;;;;;17.00;98.90;;;;;;5071608;28;20265;-68
2021/06/30 04:03:29;;;;;;;;;;;17.00;98.90;;;;;;5080187;28;19943;-67
2021/06/30 04:05:55;;;;;;;;;;;17.10;99.00;;;;;;5082559;28;19939;-69
2021/06/30 04:08:20;;;;;;;;;;;17.10;98.80;;;;;;5081037;28;19912;-68
2021/06/30 04:10:46;;;;;;;;;;;17.10;98.90;;;;;;5075239;28;19916;-68
2021/06/30 04:13:15;;;;;;;;;;;17.20;98.90;;;;;;5077130;28;20298;-70
2021/06/30 04:15:42;;;;;;;;;;;17.20;98.90;;;;;;5073152;28;19935;-68
2021/06/30 04:18:08;;;;;;;;;;;17.30;99.00;;;;;;5075421;28;19912;-67
2021/06/30 04:20:33;;;;;;;;;;;17.10;98.80;;;;;;5061805;28;20466;-68
2021/06/30 04:22:59;;;;;;;;;;;17.20;98.90;;;;;;5078772;28;19944;-68
2021/06/30 04:25:24;;;;;;;;;;;17.10;98.80;;;;;;5066041;28;19960;-68
2021/06/30 04:27:50;;;;;;;;;;;17.10;98.90;;;;;;5074004;28;19924;-68
2021/06/30 04:30:16;;;;;;;;;;;17.20;98.70;;;;;;5077977;28;19926;-68
2021/06/30 04:32:42;;;;;;;;;;;17.20;98.80;;;;;;5080657;28;19921;-65
2021/06/30 04:35:08;;;;;;;;;;;17.20;98.70;;;;;;5071287;28;20454;-66
2021/06/30 04:37:34;;;;;;;;;;;17.20;98.80;;;;;;5055701;28;20321;-66
2021/06/30 04:40:00;;;;;;;;;;;17.20;98.70;;;;;;5083600;28;20038;-66
2021/06/30 04:42:26;;;;;;;;;;;17.20;98.70;;;;;;5084291;28;19956;-65
2021/06/30 04:44:51;;;;;;;;;;;17.20;98.70;;;;;;5080788;28;19958;-64
2021/06/30 04:47:17;;;;;;;;;;;17.20;98.70;;;;;;5076450;28;19923;-65
2021/06/30 04:49:42;;;;;;;;;;;17.30;98.80;;;;;;5082399;28;20386;-66
2021/06/30 04:52:08;;;;;;;;;;;17.30;98.70;;;;;;5079418;28;20007;-65
2021/06/30 04:54:33;;;;;;;;;;;17.30;98.60;;;;;;5072222;28;19912;-65
2021/06/30 04:56:59;;;;;;;;;;;17.30;98.60;;;;;;5081513;28;19912;-65
2021/06/30 04:59:24;;;;;;;;;;;17.40;98.70;;;;;;5075874;28;20353;-67
2021/06/30 05:01:50;;;;;;;;;;;17.40;98.70;;;;;;5080907;28;19948;-65
2021/06/30 05:04:18;;;;;;;;;;;17.40;98.50;;;;;;5077724;28;20288;-68
2021/06/30 05:06:43;;;;;;;;;;;17.50;98.50;;;;;;5076482;28;19916;-67
2021/06/30 05:09:09;;;;;;;;;;;17.50;98.40;;;;;;5071935;28;19934;-66
2021/06/30 05:11:34;;;;;;;;;;;17.50;98.30;;;;;;5077198;28;20017;-65
2021/06/30 05:14:00;;;;;;;;;;;17.60;98.30;;;;;;5081111;28;20026;-67
2021/06/30 05:16:25;;;;;;;;;;;17.50;98.20;;;;;;5079335;28;20387;-66
2021/06/30 05:18:51;;;;;;;;;;;17.60;98.30;;;;;;5073725;28;20415;-66
2021/06/30 05:21:17;;;;;;;;;;;17.60;98.10;;;;;;5077965;28;19961;-68
2021/06/30 05:23:43;;;;;;;;;;;17.60;98.20;;;;;;5071484;28;20277;-66
2021/06/30 05:26:08;;;;;;;;;;;17.60;98.10;;;;;;5082413;28;19927;-65
2021/06/30 05:28:34;;;;;;;;;;;17.50;98.00;;;;;;5074474;28;19995;-67
2021/06/30 05:31:00;;;;;;;;;;;17.50;98.00;;;;;;5073700;28;20345;-66
2021/06/30 05:33:27;;;;;;;;;;;17.50;98.20;;;;;;5082896;28;20018;-66
2021/06/30 05:35:53;;;;;;;;;;;17.50;98.30;;;;;;5066978;28;19981;-69
2021/06/30 05:38:18;;;;;;;;;;;17.50;98.30;;;;;;5081250;28;19920;-67
2021/06/30 05:40:44;;;;;;;;;;;17.60;98.20;;;;;;5083993;28;20024;-67
2021/06/30 05:43:09;;;;;;;;;;;17.60;98.30;;;;;;5083397;28;20026;-67
2021/06/30 05:45:35;;;;;;;;;;;17.70;98.30;;;;;;5083783;28;19955;-67
2021/06/30 05:48:00;;;;;;;;;;;17.60;98.10;;;;;;5077963;28;20385;-67
2021/06/30 05:50:26;;;;;;;;;;;17.70;98.30;;;;;;5072036;28;19997;-67
2021/06/30 05:52:51;;;;;;;;;;;17.70;98.10;;;;;;5075763;28;19912;-66
2021/06/30 05:55:17;;;;;;;;;;;17.80;98.20;;;;;;5082791;28;19930;-67
2021/06/30 05:57:42;;;;;;;;;;;17.80;98.00;;;;;;5077468;28;20294;-67
2021/06/30 06:00:10;;;;;;;;;;;17.80;98.00;;;;;;5082989;28;19926;-67
2021/06/30 06:02:35;;;;;;;;;;;17.80;97.80;;;;;;5079794;28;19964;-66
2021/06/30 06:05:01;;;;;;;;;;;17.80;98.00;;;;;;5081417;28;20011;-67
2021/06/30 06:07:26;;;;;;;;;;;17.70;97.80;;;;;;5079851;28;20366;-68
2021/06/30 06:09:52;;;;;;;;;;;17.70;97.90;;;;;;5080158;28;20261;-66
2021/06/30 06:12:17;;;;;;;;;;;17.70;97.90;;;;;;5074391;28;19912;-66
2021/06/30 06:14:43;;;;;;;;;;;17.80;97.70;;;;;;5076037;28;19935;-69
2021/06/30 06:17:09;;;;;;;;;;;17.90;97.80;;;;;;5071090;28;19972;-67
2021/06/30 06:19:35;;;;;;;;;;;17.90;97.40;;;;;;5075147;28;19912;-66
2021/06/30 06:22:01;;;;;;;;;;;17.80;97.30;;;;;;5075862;28;19912;-66
2021/06/30 06:24:26;;;;;;;;;;;17.80;97.30;;;;;;5083258;28;20057;-67
2021/06/30 06:26:53;;;;;;;;;;;17.90;97.40;;;;;;5067370;28;19946;-68
2021/06/30 06:29:19;;;;;;;;;;;18.00;97.40;;;;;;5084579;28;20526;-66
2021/06/30 06:31:47;;;;;;;;;;;18.00;97.00;;;;;;5077334;28;20125;-68
2021/06/30 06:34:18;;;;;;;;;;;18.00;97.10;;;;;;5084178;28;19912;-69
2021/06/30 06:36:44;;;;;;;;;;;18.00;96.90;;;;;;5076130;28;20406;-67
2021/06/30 06:39:10;;;;;;;;;;;18.20;96.90;;;;;;5077098;28;20014;-67
2021/06/30 06:41:35;;;;;;;;;;;18.30;96.60;;;;;;5058518;28;20444;-67
2021/06/30 06:44:02;;;;;;;;;;;18.50;96.40;;;;;;5079066;28;20011;-65
2021/06/30 06:46:27;;;;;;;;;;;18.50;95.90;;;;;;5076617;28;20768;-67
2021/06/30 06:48:53;;;;;;;;;;;18.60;96.00;;;;;;5078084;28;19936;-68
2021/06/30 06:51:18;;;;;;;;;;;18.50;95.90;;;;;;5082703;28;19916;-68
2021/06/30 06:53:44;;;;;;;;;;;18.50;96.00;;;;;;5070992;28;19916;-67
2021/06/30 06:56:11;;;;;;;;;;;18.50;95.90;;;;;;5077775;28;19977;-67
2021/06/30 06:58:37;;;;;;;;;;;18.50;95.80;;;;;;5082026;28;20355;-67
2021/06/30 07:01:03;;;;;;;;;;;18.40;95.90;;;;;;5083067;28;19955;-67
2021/06/30 07:03:28;;;;;;;;;;;18.40;95.80;;;;;;5080388;28;20453;-67
2021/06/30 07:05:54;;;;;;;;;;;18.40;96.10;;;;;;5073522;28;20007;-67
2021/06/30 07:08:19;;;;;;;;;;;18.50;96.20;;;;;;5070764;28;19920;-66
2021/06/30 07:10:45;;;;;;;;;;;18.50;96.00;;;;;;5073911;28;19943;-68
2021/06/30 07:13:10;;;;;;;;;;;18.60;96.00;;;;;;5081989;28;19912;-67
2021/06/30 07:15:39;;;;;;;;;;;18.60;95.80;;;;;;5069914;28;19966;-67
2021/06/30 07:18:05;;;;;;;;;;;18.50;95.00;;;;;;5071149;28;19960;-68
2021/06/30 07:20:30;;;;;;;;;;;18.40;95.30;;;;;;5083396;28;20002;-66
2021/06/30 07:22:56;;;;;;;;;;;18.30;95.30;;;;;;5057422;28;20389;-68
2021/06/30 07:25:21;;;;;;;;;;;18.30;95.40;;;;;;5080274;28;19942;-68
2021/06/30 07:27:47;;;;;;;;;;;18.40;95.50;;;;;;5079887;28;19920;-68
2021/06/30 07:30:13;;;;;;;;;;;18.40;95.50;;;;;;5073626;28;20000;-68
2021/06/30 07:32:38;;;;;;;;;;;18.40;95.30;;;;;;5076919;28;19916;-69
2021/06/30 07:35:04;;;;;;;;;;;18.40;95.60;;;;;;5082786;28;19960;-67
2021/06/30 07:37:29;;;;;;;;;;;18.30;95.50;;;;;;5076172;28;20232;-67
2021/06/30 07:39:55;;;;;;;;;;;18.50;95.60;;;;;;5075604;28;19916;-67
2021/06/30 07:42:20;;;;;;;;;;;18.40;95.40;;;;;;5082393;28;20052;-67
2021/06/30 07:44:49;;;;;;;;;;;18.40;95.50;;;;;;5067741;28;20003;-68
2021/06/30 07:47:15;;;;;;;;;;;18.30;95.70;;;;;;5076137;28;19935;-67
2021/06/30 07:49:40;;;;;;;;;;;18.20;95.70;;;;;;5080379;28;20392;-67
2021/06/30 07:52:06;;;;;;;;;;;18.20;96.20;;;;;;5064285;28;19920;-67
2021/06/30 07:54:33;;;;;;;;;;;18.20;96.50;;;;;;5083517;28;19912;-69
2021/06/30 07:56:59;;;;;;;;;;;18.20;96.30;;;;;;5083010;28;19912;-67
2021/06/30 07:59:24;;;;;;;;;;;18.30;96.20;;;;;;5081544;28;19961;-67
2021/06/30 08:01:50;;;;;;;;;;;18.40;96.10;;;;;;5076702;28;20391;-67
2021/06/30 08:04:15;;;;;;;;;;;18.50;96.10;;;;;;5076763;28;19917;-67
2021/06/30 08:06:41;;;;;;;;;;;18.50;95.90;;;;;;5067196;28;20403;-67
2021/06/30 08:09:06;;;;;;;;;;;18.40;95.30;;;;;;5084389;28;19924;-68
2021/06/30 08:11:32;;;;;;;;;;;18.30;95.00;;;;;;5082034;28;20026;-67
2021/06/30 08:13:58;;;;;;;;;;;18.20;95.20;;;;;;5077004;28;20296;-66
2021/06/30 08:16:24;;;;;;;;;;;18.20;95.40;;;;;;5077210;28;19928;-66
2021/06/30 08:18:49;;;;;;;;;;;18.20;95.50;;;;;;5080261;28;19912;-67
2021/06/30 08:21:16;;;;;;;;;;;18.30;95.70;;;;;;5081273;28;19946;-66
2021/06/30 08:23:42;;;;;;;;;;;18.30;95.50;;;;;;5080457;28;19934;-67
2021/06/30 08:26:09;;;;;;;;;;;18.40;95.50;;;;;;5087739;28;19911;-68
2021/06/30 08:28:35;;;;;;;;;;;18.40;95.10;;;;;;5079903;28;19998;-67
2021/06/30 08:31:00;;;;;;;;;;;18.40;95.10;;;;;;5073908;28;20006;-67
2021/06/30 08:33:26;;;;;;;;;;;18.40;95.30;;;;;;5081601;28;20359;-68
2021/06/30 08:35:54;;;;;;;;;;;18.40;95.30;;;;;;5080252;28;20011;-67
2021/06/30 08:38:19;;;;;;;;;;;18.30;95.30;;;;;;5085155;28;20000;-69
2021/06/30 08:40:45;;;;;;;;;;;18.40;95.40;;;;;;5086596;28;20136;-67
2021/06/30 08:43:10;;;;;;;;;;;18.30;95.40;;;;;;5085526;28;19920;-67
2021/06/30 08:45:36;;;;;;;;;;;18.20;95.50;;;;;;5080686;28;19916;-68
2021/06/30 08:48:02;;;;;;;;;;;18.30;95.60;;;;;;5072472;28;19927;-67
2021/06/30 08:50:28;;;;;;;;;;;18.40;95.50;;;;;;5082158;28;19995;-66
2021/06/30 08:52:55;;;;;;;;;;;18.30;94.90;;;;;;5082001;28;19951;-66
2021/06/30 08:55:21;;;;;;;;;;;18.40;95.20;;;;;;5083170;28;19912;-65
2021/06/30 08:57:49;;;;;;;;;;;18.50;95.10;;;;;;5069891;28;20185;-66
2021/06/30 09:00:15;;;;;;;;;;;18.50;95.20;;;;;;5082857;28;19912;-66
2021/06/30 09:02:43;;;;;;;;;;;18.60;94.70;;;;;;5081522;28;19920;-66
2021/06/30 09:05:15;;;;;;;;;;;18.70;94.40;;;;;;5057508;28;19917;-66
2021/06/30 09:07:41;;;;;;;;;;;18.80;94.20;;;;;;5058641;28;19969;-67
2021/06/30 09:10:07;;;;;;;;;;;18.70;92.90;;;;;;5082287;28;19923;-67
2021/06/30 09:12:37;;;;;;;;;;;18.80;93.60;;;;;;5080499;28;20297;-67
2021/06/30 09:15:15;;;;;;;;;;;19.00;92.30;;;;;;5077641;28;19913;-68
2021/06/30 09:17:41;;;;;;;;;;;19.30;92.20;;;;;;5085231;28;19912;-68
2021/06/30 09:20:08;;;;;;;;;;;19.40;91.50;;;;;;5086422;28;19912;-69
2021/06/30 09:22:47;;;;;;;;;;;19.50;91.10;;;;;;5077349;28;19992;-67
2021/06/30 09:25:26;;;;;;;;;;;19.60;90.40;;;;;;5077312;28;20409;-67
2021/06/30 09:27:52;;;;;;;;;;;19.70;90.00;;;;;;5085671;28;19912;-69
2021/06/30 09:30:17;;;;;;;;;;;19.80;89.20;;;;;;5054278;28;19916;-70
2021/06/30 09:32:56;;;;;;;;;;;19.80;89.50;;;;;;5081761;28;20022;-67
2021/06/30 09:35:23;;;;;;;;;;;19.90;88.60;;;;;;5073091;28;19916;-67
2021/06/30 09:37:49;;;;;;;;;;;19.90;88.60;;;;;;5082144;28;19935;-67
2021/06/30 09:40:18;;;;;;;;;;;20.00;89.10;;;;;;5085951;28;20345;-67
2021/06/30 09:42:44;;;;;;;;;;;20.00;89.00;;;;;;5081429;28;20015;-67
2021/06/30 09:45:14;;;;;;;;;;;20.20;88.90;;;;;;5060199;28;20098;-67
2021/06/30 09:47:57;;;;;;;;;;;20.50;88.20;;;;;;5065763;28;19930;-67
2021/06/30 09:50:37;;;;;;;;;;;20.60;87.20;;;;;;5084458;28;19924;-68
2021/06/30 09:53:02;;;;;;;;;;;20.70;86.00;;;;;;5076636;28;19959;-67
2021/06/30 09:55:29;;;;;;;;;;;21.10;84.30;;;;;;5084439;28;19978;-67
2021/06/30 09:57:55;;;;;;;;;;;21.30;83.20;;;;;;5084500;28;20045;-68
2021/06/30 10:00:20;;;;;;;;;;;21.50;82.10;;;;;;5085397;28;19912;-67
2021/06/30 10:02:48;;;;;;;;;;;21.90;80.50;;;;;;5065712;28;19941;-67
2021/06/30 10:05:14;;;;;;;;;;;22.20;80.20;;;;;;5076642;28;20031;-68
2021/06/30 10:07:40;;;;;;;;;;;22.00;79.20;;;;;;5078386;28;20060;-69
2021/06/30 10:10:09;;;;;;;;;;;21.80;78.50;;;;;;5081534;28;20043;-67
2021/06/30 10:12:35;;;;;;;;;;;21.60;79.10;;;;;;5075690;28;20303;-67
2021/06/30 10:15:02;;;;;;;;;;;21.60;80.20;;;;;;5083032;28;20069;-67
2021/06/30 10:17:27;;;;;;;;;;;21.40;80.20;;;;;;5083529;28;19976;-66
2021/06/30 10:19:53;;;;;;;;;;;21.40;80.30;;;;;;5083238;28;19943;-68
2021/06/30 10:22:19;;;;;;;;;;;21.70;80.60;;;;;;5078791;28;19956;-68
2021/06/30 10:24:45;;;;;;;;;;;21.80;80.30;;;;;;5083308;28;20438;-68
2021/06/30 10:27:12;;;;;;;;;;;21.40;80.60;;;;;;5082073;28;19943;-68
2021/06/30 10:29:39;;;;;;;;;;;21.40;81.40;;;;;;5048918;28;20007;-68
2021/06/30 10:32:06;;;;;;;;;;;21.00;82.50;;;;;;5082823;28;19950;-68
2021/06/30 10:34:39;;;;;;;;;;;20.90;83.20;;;;;;5076146;28;19935;-68
2021/06/30 10:37:17;;;;;;;;;;;20.60;84.20;;;;;;5053234;28;19919;-67
2021/06/30 10:39:44;;;;;;;;;;;20.30;85.30;;;;;;5064713;28;19931;-67
2021/06/30 10:42:18;;;;;;;;;;;20.00;86.30;;;;;;5072920;28;19939;-68
2021/06/30 10:44:49;;;;;;;;;;;20.20;86.40;;;;;;5071694;28;19999;-68
2021/06/30 10:47:35;;;;;;;;;;;20.10;86.30;;;;;;5078162;28;20038;-68
2021/06/30 10:50:18;;;;;;;;;;;20.00;86.60;;;;;;5078180;28;19920;-68
2021/06/30 10:52:44;;;;;;;;;;;20.10;86.20;;;;;;5072912;28;19923;-68
2021/06/30 10:55:29;;;;;;;;;;;20.00;85.80;;;;;;5084102;28;20244;-68
2021/06/30 10:58:19;;;;;;;;;;;20.00;86.20;;;;;;5074650;28;20264;-66
2021/06/30 11:00:45;;;;;;;;;;;20.00;86.40;;;;;;5071254;28;19999;-68
2021/06/30 11:03:22;;;;;;;;;;;19.90;86.50;;;;;;5078721;28;20233;-68
2021/06/30 11:05:49;;;;;;;;;;;19.80;86.90;;;;;;5074768;28;19920;-67
2021/06/30 11:08:37;;;;;;;;;;;19.80;87.00;;;;;;5072780;28;20019;-67
2021/06/30 11:11:03;;;;;;;;;;;20.00;87.60;;;;;;5074516;28;20056;-67
2021/06/30 11:13:51;;;;;;;;;;;19.80;88.20;;;;;;5079527;28;20103;-67
2021/06/30 11:16:35;;;;;;;;;;;19.70;87.80;;;;;;5073745;28;20030;-69
2021/06/30 11:19:01;;;;;;;;;;;19.70;87.70;;;;;;5063233;28;19952;-67
2021/06/30 11:21:45;;;;;;;;;;;19.50;88.40;;;;;;5073037;28;20447;-69
2021/06/30 11:24:29;;;;;;;;;;;19.40;89.00;;;;;;5073374;28;19912;-67
2021/06/30 11:26:55;;;;;;;;;;;19.30;89.70;;;;;;5082553;28;20019;-67
2021/06/30 11:29:39;;;;;;;;;;;19.30;89.50;;;;;;5084028;28;20351;-68
2021/06/30 11:32:04;;;;;;;;;;;19.20;89.60;;;;;;5082703;28;19912;-67
2021/06/30 11:34:35;;;;;;;;;;;19.10;89.50;;;;;;5083936;28;19972;-67
2021/06/30 11:37:01;;;;;;;;;;;19.00;90.10;;;;;;5082505;28;20309;-67
2021/06/30 11:39:26;;;;;;;;;;;19.00;90.20;;;;;;5063147;28;20072;-68
2021/06/30 11:41:52;;;;;;;;;;;19.00;90.50;;;;;;5074012;28;19989;-68
2021/06/30 11:44:20;;;;;;;;;;;19.10;89.80;;;;;;5086681;28;20244;-69
2021/06/30 11:46:50;;;;;;;;;;;19.10;89.50;;;;;;5087466;28;19936;-67
2021/06/30 11:49:16;;;;;;;;;;;19.10;89.20;;;;;;5088240;28;20709;-67
2021/06/30 11:51:42;;;;;;;;;;;19.10;88.90;;;;;;5086523;28;20040;-69
2021/06/30 11:54:14;;;;;;;;;;;19.30;88.30;;;;;;5087245;28;19963;-67
2021/06/30 11:56:41;;;;;;;;;;;19.50;87.80;;;;;;5085681;28;19991;-67
2021/06/30 11:59:09;;;;;;;;;;;19.50;87.70;;;;;;5076734;28;20006;-67
2021/06/30 12:01:37;;;;;;;;;;;19.60;88.00;;;;;;5073418;28;19923;-67
2021/06/30 12:04:12;;;;;;;;;;;19.70;87.60;;;;;;5070588;28;19951;-70
2021/06/30 12:06:38;;;;;;;;;;;19.60;87.70;;;;;;5075958;28;19931;-68
2021/06/30 12:09:04;;;;;;;;;;;19.50;87.70;;;;;;5079733;28;20068;-67
2021/06/30 12:11:30;;;;;;;;;;;19.50;88.30;;;;;;5082008;28;20222;-68
2021/06/30 12:14:11;;;;;;;;;;;19.40;87.50;;;;;;5082779;28;20420;-69
2021/06/30 12:16:37;;;;;;;;;;;19.60;87.30;;;;;;5081228;28;19912;-68
2021/06/30 12:19:10;;;;;;;;;;;19.50;87.90;;;;;;5081673;28;20154;-68
2021/06/30 12:21:36;;;;;;;;;;;19.60;88.30;;;;;;5080037;28;20003;-67
2021/06/30 12:24:02;;;;;;;;;;;19.60;87.30;;;;;;5079342;28;19950;-68
2021/06/30 12:26:27;;;;;;;;;;;19.60;87.40;;;;;;5081952;28;20261;-68
2021/06/30 12:28:53;;;;;;;;;;;19.70;86.70;;;;;;5079953;28;19916;-68
2021/06/30 12:31:18;;;;;;;;;;;19.70;86.30;;;;;;5082532;28;19928;-68
2021/06/30 12:33:46;;;;;;;;;;;19.70;86.30;;;;;;5076691;28;20041;-68
2021/06/30 12:36:12;;;;;;;;;;;19.80;85.90;;;;;;5078439;28;20376;-68
2021/06/30 12:38:37;;;;;;;;;;;20.00;85.70;;;;;;5079225;28;19912;-67
2021/06/30 12:41:06;;;;;;;;;;;20.10;85.60;;;;;;5080927;28;20402;-67
2021/06/30 12:43:31;;;;;;;;;;;20.40;84.80;;;;;;5076990;28;20113;-68
2021/06/30 12:45:57;;;;;;;;;;;20.40;84.00;;;;;;5082114;28;20315;-67
2021/06/30 12:48:24;;;;;;;;;;;20.50;84.40;;;;;;5079010;28;19983;-68
2021/06/30 12:50:53;;;;;;;;;;;20.70;83.50;;;;;;5081821;28;19916;-67
2021/06/30 12:53:24;;;;;;;;;;;20.60;83.20;;;;;;5080146;28;20272;-69
2021/06/30 12:55:51;;;;;;;;;;;20.50;83.00;;;;;;5077121;28;20128;-67
2021/06/30 12:58:17;;;;;;;;;;;20.50;83.10;;;;;;5078230;28;19917;-68
2021/06/30 13:00:53;;;;;;;;;;;20.40;83.20;;;;;;5072929;28;20062;-67
2021/06/30 13:03:19;;;;;;;;;;;20.10;83.50;;;;;;5078890;28;20070;-67
2021/06/30 13:05:46;;;;;;;;;;;20.00;84.50;;;;;;5082419;28;20032;-67
2021/06/30 13:08:27;;;;;;;;;;;19.90;84.00;;;;;;5077800;28;19912;-69
2021/06/30 13:10:59;;;;;;;;;;;19.70;84.70;;;;;;5076323;28;20261;-67
2021/06/30 13:13:25;;;;;;;;;;;19.60;85.20;;;;;;5079704;28;19924;-67
2021/06/30 13:15:50;;;;;;;;;;;19.60;85.20;;;;;;5080452;28;19920;-68
2021/06/30 13:18:16;;;;;;;;;;;19.50;85.20;;;;;;5078027;28;19908;-67
2021/06/30 13:20:42;;;;;;;;;;;19.50;85.60;;;;;;5081527;28;20548;-67
2021/06/30 13:23:07;;;;;;;;;;;19.40;85.10;;;;;;5080112;28;19912;-67
2021/06/30 13:25:42;;;;;;;;;;;19.30;86.00;;;;;;5079341;28;20303;-68
2021/06/30 13:28:13;;;;;;;;;;;19.40;85.70;;;;;;5080256;28;19908;-68
2021/06/30 13:36:11;;;;;;;;;;;19.00;86.70;;;;;;5076979;28;20015;-68
2021/06/30 13:38:36;;;;;;;;;;;19.00;87.00;;;;;;5075785;28;19916;-67
2021/06/30 13:41:18;;;;;;;;;;;19.00;86.80;;;;;;5058837;28;19920;-67
2021/06/30 13:43:46;;;;;;;;;;;18.90;87.10;;;;;;5078184;28;19913;-68
2021/06/30 13:46:13;;;;;;;;;;;18.80;86.80;;;;;;5076421;28;19973;-69
2021/06/30 13:48:42;;;;;;;;;;;18.80;87.30;;;;;;5080096;28;19912;-68
2021/06/30 13:51:08;;;;;;;;;;;18.70;87.70;;;;;;5080551;28;20102;-68
2021/06/30 13:53:34;;;;;;;;;;;18.80;87.40;;;;;;5080745;28;20134;-67
2021/06/30 13:56:00;;;;;;;;;;;19.00;87.30;;;;;;5077899;28;19981;-68
2021/06/30 13:58:26;;;;;;;;;;;18.90;86.80;;;;;;5080694;28;20117;-68
2021/06/30 14:00:52;;;;;;;;;;;19.00;87.40;;;;;;5074313;28;20019;-68
2021/06/30 14:03:17;;;;;;;;;;;18.90;87.60;;;;;;5079620;28;19994;-68
2021/06/30 14:05:43;;;;;;;;;;;18.90;87.50;;;;;;5076644;28;19961;-69
2021/06/30 14:08:12;;;;;;;;;;;18.80;87.40;;;;;;5077227;28;20054;-68
2021/06/30 14:10:39;;;;;;;;;;;18.70;88.00;;;;;;5073527;28;19984;-67
2021/06/30 14:13:04;;;;;;;;;;;18.60;87.90;;;;;;5075877;28;19916;-67
2021/06/30 14:15:30;;;;;;;;;;;18.70;87.90;;;;;;5080914;28;19916;-68
2021/06/30 14:17:55;;;;;;;;;;;18.60;87.70;;;;;;5077529;28;19923;-69
2021/06/30 14:20:21;;;;;;;;;;;18.60;88.40;;;;;;5082023;28;19937;-69